createdAt,value
2018-09-15T00:00:48.014Z,14.50
2018-09-15T00:03:15.791Z,14.60
2018-09-15T00:05:43.667Z,14.60
2018-09-15T00:08:11.599Z,14.80
2018-09-15T00:10:39.444Z,14.80
2018-09-15T00:13:07.368Z,14.80
2018-09-15T00:15:35.225Z,14.70
2018-09-15T00:18:05.294Z,14.70
2018-09-15T00:20:33.063Z,14.60
2018-09-15T00:23:00.936Z,14.70
2018-09-15T00:25:28.779Z,14.60
2018-09-15T00:27:56.530Z,14.60
2018-09-15T00:30:24.387Z,14.60
2018-09-15T00:32:52.165Z,14.50
2018-09-15T00:35:20.277Z,14.50
2018-09-15T00:37:48.171Z,14.40
2018-09-15T00:40:15.944Z,14.40
2018-09-15T00:42:44.068Z,14.30
2018-09-15T00:45:12.096Z,14.20
2018-09-15T00:47:39.901Z,14.20
2018-09-15T00:50:07.831Z,14.10
2018-09-15T00:52:35.669Z,14.10
2018-09-15T00:55:03.656Z,14.00
2018-09-15T00:57:31.419Z,14.00
2018-09-15T00:59:59.335Z,13.80
2018-09-15T01:02:27.275Z,13.70
2018-09-15T01:04:55.124Z,13.70
2018-09-15T01:07:22.963Z,13.60
2018-09-15T01:09:54.320Z,13.70
2018-09-15T01:12:22.236Z,13.60
2018-09-15T01:14:50.043Z,13.60
2018-09-15T01:17:17.927Z,13.50
2018-09-15T01:19:45.972Z,13.50
2018-09-15T01:22:13.824Z,13.50
2018-09-15T01:24:41.675Z,13.50
2018-09-15T01:27:09.549Z,13.50
2018-09-15T01:29:37.272Z,13.50
2018-09-15T01:32:05.166Z,13.50
2018-09-15T01:34:33.063Z,13.50
2018-09-15T01:37:01.217Z,13.40
2018-09-15T01:39:29.049Z,13.30
2018-09-15T01:41:56.857Z,13.20
2018-09-15T01:44:24.655Z,13.10
2018-09-15T01:46:52.479Z,13.10
2018-09-15T01:49:20.275Z,13.10
2018-09-15T01:51:48.119Z,13.00
2018-09-15T01:54:16.504Z,13.00
2018-09-15T01:56:44.271Z,12.90
2018-09-15T01:59:12.071Z,13.00
2018-09-15T02:01:39.880Z,13.10
2018-09-15T02:04:08.123Z,13.00
2018-09-15T02:06:35.988Z,13.00
2018-09-15T02:09:09.667Z,12.90
2018-09-15T02:11:37.509Z,12.90
2018-09-15T02:14:05.381Z,13.00
2018-09-15T02:16:33.204Z,13.00
2018-09-15T02:19:01.064Z,13.00
2018-09-15T02:21:28.915Z,13.00
2018-09-15T02:23:56.754Z,12.90
2018-09-15T02:26:24.575Z,12.90
2018-09-15T02:28:52.439Z,12.80
2018-09-15T02:31:20.274Z,12.70
2018-09-15T02:33:48.069Z,12.80
2018-09-15T02:36:16.291Z,12.60
2018-09-15T02:38:44.293Z,12.50
2018-09-15T02:41:12.368Z,12.40
2018-09-15T02:43:40.217Z,12.30
2018-09-15T02:46:07.992Z,12.40
2018-09-15T02:48:35.755Z,12.30
2018-09-15T02:51:03.661Z,12.20
2018-09-15T02:53:31.471Z,12.20
2018-09-15T02:55:59.321Z,12.00
2018-09-15T02:58:27.212Z,12.00
2018-09-15T03:00:55.012Z,11.90
2018-09-15T03:03:22.819Z,11.80
2018-09-15T03:05:50.655Z,11.70
2018-09-15T03:08:18.476Z,11.70
2018-09-15T03:10:46.302Z,11.60
2018-09-15T03:13:14.140Z,11.60
2018-09-15T03:15:41.943Z,11.60
2018-09-15T03:18:09.784Z,11.70
2018-09-15T03:20:37.652Z,11.60
2018-09-15T03:23:05.656Z,11.60
2018-09-15T03:25:33.427Z,11.60
2018-09-15T03:28:01.255Z,11.60
2018-09-15T03:30:29.072Z,11.50
2018-09-15T03:32:56.891Z,11.40
2018-09-15T03:35:24.772Z,11.50
2018-09-15T03:37:52.539Z,11.50
2018-09-15T03:40:20.360Z,11.40
2018-09-15T03:42:52.515Z,11.40
2018-09-15T03:45:20.379Z,11.40
2018-09-15T03:47:48.210Z,11.30
2018-09-15T03:50:16.041Z,11.30
2018-09-15T03:52:43.881Z,11.30
2018-09-15T03:55:11.679Z,11.20
2018-09-15T03:57:39.484Z,11.10
2018-09-15T04:00:07.449Z,11.10
2018-09-15T04:02:35.297Z,11.00
2018-09-15T04:05:03.232Z,11.00
2018-09-15T04:07:30.996Z,11.00
2018-09-15T04:09:58.895Z,10.90
2018-09-15T04:12:26.675Z,10.90
2018-09-15T04:14:54.499Z,10.90
2018-09-15T04:17:22.373Z,10.80
2018-09-15T04:19:50.217Z,10.80
2018-09-15T04:22:18.003Z,10.70
2018-09-15T04:24:45.816Z,10.80
2018-09-15T04:27:13.701Z,10.90
2018-09-15T04:29:41.483Z,10.80
2018-09-15T04:32:09.307Z,10.70
2018-09-15T04:34:37.172Z,10.70
2018-09-15T04:37:05.051Z,10.50
2018-09-15T04:39:32.895Z,10.40
2018-09-15T04:42:00.744Z,10.40
2018-09-15T04:44:28.583Z,10.30
2018-09-15T04:46:59.960Z,10.30
2018-09-15T04:49:27.815Z,10.20
2018-09-15T04:51:55.687Z,10.20
2018-09-15T04:54:23.540Z,10.10
2018-09-15T04:56:51.352Z,10.00
2018-09-15T04:59:19.183Z,10.00
2018-09-15T05:01:47.049Z,10.00
2018-09-15T05:04:14.941Z,10.00
2018-09-15T05:06:42.803Z,9.90
2018-09-15T05:09:11.788Z,9.80
2018-09-15T05:11:39.657Z,9.90
2018-09-15T05:14:07.451Z,9.90
2018-09-15T05:16:35.322Z,9.90
2018-09-15T05:19:03.175Z,10.10
2018-09-15T05:21:31.031Z,10.20
2018-09-15T05:23:58.924Z,10.10
2018-09-15T05:26:26.695Z,10.00
2018-09-15T05:28:54.629Z,10.00
2018-09-15T05:31:22.505Z,10.10
2018-09-15T05:33:56.938Z,10.20
2018-09-15T05:36:26.231Z,10.50
2018-09-15T05:38:55.013Z,10.50
2018-09-15T05:41:23.037Z,10.50
2018-09-15T05:43:54.119Z,10.60
2018-09-15T05:46:24.705Z,10.60
2018-09-15T05:48:52.578Z,10.60
2018-09-15T05:51:21.209Z,10.70
2018-09-15T05:53:49.087Z,10.80
2018-09-15T05:56:16.944Z,10.90
2018-09-15T05:58:44.807Z,10.80
2018-09-15T06:01:12.669Z,10.80
2018-09-15T06:03:40.531Z,11.00
2018-09-15T06:06:08.457Z,10.90
2018-09-15T06:08:36.280Z,11.10
2018-09-15T06:11:04.809Z,11.10
2018-09-15T06:13:32.966Z,11.10
2018-09-15T06:16:01.580Z,11.10
2018-09-15T06:18:30.198Z,11.40
2018-09-15T06:20:58.002Z,11.80
2018-09-15T06:23:25.836Z,12.00
2018-09-15T06:25:53.729Z,12.10
2018-09-15T06:28:31.705Z,12.40
2018-09-15T06:30:59.755Z,12.70
2018-09-15T06:33:27.560Z,12.90
2018-09-15T06:35:59.513Z,12.90
2018-09-15T06:38:27.428Z,13.00
2018-09-15T06:40:55.292Z,13.10
2018-09-15T06:43:23.136Z,13.10
2018-09-15T06:45:51.119Z,13.10
2018-09-15T06:48:18.872Z,13.20
2018-09-15T06:50:46.779Z,13.30
2018-09-15T06:53:14.573Z,13.30
2018-09-15T06:55:42.458Z,13.40
2018-09-15T06:58:10.249Z,13.30
2018-09-15T07:00:38.105Z,13.30
2018-09-15T07:03:05.911Z,13.30
2018-09-15T07:05:33.755Z,13.30
2018-09-15T07:08:01.597Z,13.40
2018-09-15T07:10:29.455Z,13.40
2018-09-15T07:12:57.383Z,13.50
2018-09-15T07:15:25.196Z,13.50
2018-09-15T07:17:53.063Z,13.60
2018-09-15T07:20:20.892Z,13.70
2018-09-15T07:22:48.659Z,13.80
2018-09-15T07:25:16.566Z,13.80
2018-09-15T07:27:44.329Z,14.00
2018-09-15T07:30:12.100Z,14.00
2018-09-15T07:32:39.947Z,14.10
2018-09-15T07:35:07.723Z,14.10
2018-09-15T07:37:37.455Z,14.20
2018-09-15T07:40:09.538Z,14.30
2018-09-15T07:42:38.555Z,14.40
2018-09-15T07:45:06.411Z,14.50
2018-09-15T07:47:34.288Z,14.60
2018-09-15T07:50:02.124Z,14.90
2018-09-15T07:52:30.533Z,14.90
2018-09-15T07:54:58.371Z,15.10
2018-09-15T07:57:26.696Z,15.10
2018-09-15T08:00:04.628Z,15.10
2018-09-15T08:02:37.517Z,15.20
2018-09-15T08:05:05.474Z,15.40
2018-09-15T08:07:33.474Z,15.40
2018-09-15T08:10:02.026Z,15.40
2018-09-15T08:12:29.889Z,15.50
2018-09-15T08:14:57.732Z,15.70
2018-09-15T08:17:25.807Z,15.70
2018-09-15T08:19:54.107Z,15.90
2018-09-15T08:22:21.947Z,15.90
2018-09-15T08:24:50.874Z,15.90
2018-09-15T08:27:18.805Z,16.00
2018-09-15T08:29:46.614Z,16.10
2018-09-15T08:32:14.435Z,16.20
2018-09-15T08:34:42.240Z,16.20
2018-09-15T08:37:10.080Z,16.30
2018-09-15T08:39:37.854Z,16.40
2018-09-15T08:42:05.816Z,16.50
2018-09-15T08:44:37.860Z,16.50
2018-09-15T08:47:06.375Z,16.60
2018-09-15T08:49:34.187Z,16.80
2018-09-15T08:52:02.027Z,16.90
2018-09-15T08:54:29.855Z,17.10
2018-09-15T08:56:57.682Z,17.50
2018-09-15T08:59:25.495Z,17.50
2018-09-15T09:01:53.390Z,17.50
2018-09-15T09:04:21.244Z,17.50
2018-09-15T09:06:49.496Z,17.60
2018-09-15T09:09:17.375Z,17.60
2018-09-15T09:11:45.180Z,17.60
2018-09-15T09:14:12.913Z,17.60
2018-09-15T09:16:40.787Z,17.60
2018-09-15T09:19:08.685Z,17.90
2018-09-15T09:21:36.574Z,17.90
2018-09-15T09:24:04.399Z,18.20
2018-09-15T09:26:32.468Z,18.20
2018-09-15T09:29:00.165Z,18.30
2018-09-15T09:31:28.104Z,18.40
2018-09-15T09:33:55.974Z,18.50
2018-09-15T09:36:23.807Z,18.50
2018-09-15T09:38:51.656Z,18.40
2018-09-15T09:41:19.440Z,18.20
2018-09-15T09:43:47.188Z,18.20
2018-09-15T09:48:52.316Z,18.40
2018-09-15T09:51:20.096Z,18.80
2018-09-15T09:53:47.906Z,18.90
2018-09-15T09:56:15.792Z,19.10
2018-09-15T09:58:43.744Z,19.00
2018-09-15T10:01:17.322Z,18.90
2018-09-15T10:03:45.048Z,19.00
2018-09-15T10:06:12.867Z,19.20
2018-09-15T10:08:40.735Z,19.30
2018-09-15T10:11:08.620Z,19.30
2018-09-15T10:13:36.487Z,19.50
2018-09-15T10:16:04.385Z,19.70
2018-09-15T10:18:32.223Z,19.50
2018-09-15T10:21:00.070Z,19.50
2018-09-15T10:23:27.872Z,19.60
2018-09-15T10:25:55.739Z,19.70
2018-09-15T10:28:23.655Z,19.60
2018-09-15T10:30:51.516Z,19.80
2018-09-15T10:33:19.316Z,20.10
2018-09-15T10:35:47.148Z,20.50
2018-09-15T10:38:14.991Z,20.90
2018-09-15T10:40:42.711Z,21.60
2018-09-15T10:43:10.630Z,21.70
2018-09-15T10:45:38.411Z,22.40
2018-09-15T10:48:06.523Z,23.20
2018-09-15T10:50:34.565Z,23.40
2018-09-15T10:53:02.442Z,22.20
2018-09-15T10:55:30.449Z,22.20
2018-09-15T10:57:58.259Z,22.40
2018-09-15T11:00:26.225Z,22.90
2018-09-15T11:02:54.002Z,24.10
2018-09-15T11:05:21.797Z,25.00
2018-09-15T11:07:49.584Z,25.50
2018-09-15T11:10:17.342Z,25.10
2018-09-15T11:12:45.287Z,24.50
2018-09-15T11:15:13.215Z,24.00
2018-09-15T11:17:41.092Z,23.40
2018-09-15T11:20:08.939Z,23.10
2018-09-15T11:22:36.839Z,23.00
2018-09-15T11:25:04.671Z,22.80
2018-09-15T11:27:33.016Z,22.50
2018-09-15T11:30:00.907Z,22.90
2018-09-15T11:32:28.735Z,23.10
2018-09-15T11:34:56.955Z,23.00
2018-09-15T11:37:24.896Z,22.80
2018-09-15T11:39:52.703Z,23.30
2018-09-15T11:42:22.596Z,23.50
2018-09-15T11:44:50.524Z,23.40
2018-09-15T11:47:18.381Z,22.70
2018-09-15T11:49:46.537Z,23.00
2018-09-15T11:52:14.620Z,22.60
2018-09-15T11:54:42.724Z,22.80
2018-09-15T11:57:13.884Z,23.30
2018-09-15T11:59:43.491Z,23.30
2018-09-15T12:02:11.639Z,23.20
2018-09-15T12:04:39.508Z,23.40
2018-09-15T12:07:07.303Z,24.30
2018-09-15T12:09:35.115Z,24.40
2018-09-15T12:12:02.970Z,24.20
2018-09-15T12:14:30.820Z,24.30
2018-09-15T12:16:58.639Z,23.60
2018-09-15T12:19:26.459Z,23.50
2018-09-15T12:21:54.262Z,23.60
2018-09-15T12:24:22.056Z,24.00
2018-09-15T12:26:49.884Z,24.00
2018-09-15T12:29:18.092Z,24.00
2018-09-15T12:31:46.083Z,24.10
2018-09-15T12:34:13.915Z,23.60
2018-09-15T12:36:44.136Z,23.30
2018-09-15T12:39:11.939Z,23.30
2018-09-15T12:41:39.849Z,23.30
2018-09-15T12:44:07.683Z,23.70
2018-09-15T12:46:35.503Z,23.60
2018-09-15T12:49:03.308Z,23.80
2018-09-15T12:51:31.153Z,23.90
2018-09-15T12:53:58.972Z,23.20
2018-09-15T12:56:26.779Z,23.20
2018-09-15T12:58:54.552Z,23.40
2018-09-15T13:01:25.096Z,23.50
2018-09-15T13:03:52.975Z,23.60
2018-09-15T13:06:20.770Z,24.20
2018-09-15T13:08:48.592Z,24.40
2018-09-15T13:11:16.371Z,24.40
2018-09-15T13:13:44.203Z,24.60
2018-09-15T13:16:12.055Z,24.60
2018-09-15T13:18:39.855Z,24.80
2018-09-15T13:21:07.707Z,24.20
2018-09-15T13:23:35.643Z,23.50
2018-09-15T13:26:03.476Z,24.10
2018-09-15T13:28:31.262Z,23.90
2018-09-15T13:30:59.124Z,24.20
2018-09-15T13:33:26.944Z,24.40
2018-09-15T13:35:54.787Z,24.80
2018-09-15T13:38:22.663Z,24.80
2018-09-15T13:40:50.503Z,24.30
2018-09-15T13:43:18.358Z,23.60
2018-09-15T13:45:46.190Z,23.80
2018-09-15T13:48:14.024Z,23.50
2018-09-15T13:50:41.895Z,23.50
2018-09-15T13:53:09.760Z,22.40
2018-09-15T13:55:37.512Z,22.90
2018-09-15T13:58:05.664Z,23.50
2018-09-15T14:00:33.513Z,23.10
2018-09-15T14:03:01.407Z,23.40
2018-09-15T14:05:29.212Z,22.50
2018-09-15T14:07:56.951Z,22.30
2018-09-15T14:10:24.771Z,23.10
2018-09-15T14:12:52.525Z,23.30
2018-09-15T14:15:20.378Z,23.50
2018-09-15T14:17:48.283Z,23.30
2018-09-15T14:20:16.127Z,23.00
2018-09-15T14:22:43.903Z,23.10
2018-09-15T14:25:11.714Z,22.50
2018-09-15T14:27:39.607Z,22.60
2018-09-15T14:30:07.427Z,22.80
2018-09-15T14:32:35.293Z,22.80
2018-09-15T14:35:05.780Z,22.90
2018-09-15T14:37:33.560Z,22.90
2018-09-15T14:40:01.763Z,23.10
2018-09-15T14:42:29.644Z,23.30
2018-09-15T14:44:57.514Z,23.20
2018-09-15T14:47:25.382Z,23.40
2018-09-15T14:49:53.203Z,23.50
2018-09-15T14:52:21.065Z,23.60
2018-09-15T14:54:48.844Z,23.70
2018-09-15T14:57:16.698Z,23.70
2018-09-15T14:59:44.508Z,23.80
2018-09-15T15:02:12.287Z,23.70
2018-09-15T15:04:40.157Z,23.40
2018-09-15T15:07:08.210Z,23.60
2018-09-15T15:09:36.123Z,23.80
2018-09-15T15:12:04.028Z,23.50
2018-09-15T15:14:31.827Z,23.50
2018-09-15T15:16:59.868Z,23.10
2018-09-15T15:19:27.717Z,23.10
2018-09-15T15:21:55.479Z,23.20
2018-09-15T15:24:23.247Z,23.10
2018-09-15T15:26:51.273Z,23.30
2018-09-15T15:29:19.092Z,23.50
2018-09-15T15:31:46.999Z,23.40
2018-09-15T15:34:15.887Z,23.10
2018-09-15T15:36:43.727Z,22.90
2018-09-15T15:39:11.812Z,23.10
2018-09-15T15:41:39.576Z,23.00
2018-09-15T15:44:07.526Z,22.80
2018-09-15T15:46:35.495Z,22.70
2018-09-15T15:49:03.736Z,22.50
2018-09-15T15:51:31.953Z,22.40
2018-09-15T15:53:59.847Z,22.20
2018-09-15T15:56:27.897Z,21.90
2018-09-15T15:58:56.257Z,22.00
2018-09-15T16:01:23.984Z,22.00
2018-09-15T16:03:52.235Z,21.90
2018-09-15T16:06:20.515Z,21.90
2018-09-15T16:08:50.539Z,21.90
2018-09-15T16:11:18.999Z,21.80
2018-09-15T16:13:47.134Z,21.80
2018-09-15T16:16:15.038Z,21.80
2018-09-15T16:18:43.114Z,21.70
2018-09-15T16:21:11.093Z,21.80
2018-09-15T16:23:39.208Z,21.60
2018-09-15T16:26:07.783Z,21.60
2018-09-15T16:28:35.934Z,21.50
2018-09-15T16:31:03.991Z,21.20
2018-09-15T16:33:32.226Z,21.30
2018-09-15T16:36:03.161Z,21.20
2018-09-15T16:38:31.140Z,21.20
2018-09-15T16:40:59.216Z,21.30
2018-09-15T16:43:27.136Z,21.50
2018-09-15T16:45:55.477Z,21.30
2018-09-15T16:48:23.926Z,21.10
2018-09-15T16:50:51.760Z,20.90
2018-09-15T16:53:19.743Z,20.90
2018-09-15T16:55:47.773Z,20.70
2018-09-15T16:58:15.614Z,20.70
2018-09-15T17:00:43.415Z,20.60
2018-09-15T17:03:11.498Z,20.60
2018-09-15T17:05:39.821Z,20.50
2018-09-15T17:08:08.172Z,20.40
2018-09-15T17:10:37.027Z,20.30
2018-09-15T17:13:05.120Z,20.20
2018-09-15T17:15:33.299Z,20.20
2018-09-15T17:18:01.126Z,20.20
2018-09-15T17:20:29.624Z,20.10
2018-09-15T17:22:57.680Z,20.00
2018-09-15T17:25:25.645Z,19.80
2018-09-15T17:27:53.955Z,19.70
2018-09-15T17:30:22.055Z,19.70
2018-09-15T17:32:49.955Z,19.50
2018-09-15T17:35:17.964Z,19.50
2018-09-15T17:37:45.888Z,19.50
2018-09-15T17:40:13.740Z,19.40
2018-09-15T17:42:41.609Z,19.30
2018-09-15T17:45:09.478Z,19.20
2018-09-15T17:47:37.259Z,19.20
2018-09-15T17:50:05.055Z,19.00
2018-09-15T17:52:32.931Z,18.90
2018-09-15T17:55:01.440Z,18.70
2018-09-15T17:57:31.689Z,18.60
2018-09-15T17:59:59.614Z,18.50
2018-09-15T18:02:28.521Z,18.40
2018-09-15T18:04:57.238Z,18.30
2018-09-15T18:07:24.971Z,18.10
2018-09-15T18:09:52.909Z,18.00
2018-09-15T18:12:20.765Z,17.80
2018-09-15T18:14:48.591Z,17.80
2018-09-15T18:17:16.480Z,17.70
2018-09-15T18:19:44.424Z,17.60
2018-09-15T18:22:12.245Z,17.50
2018-09-15T18:24:40.032Z,17.40
2018-09-15T18:27:07.875Z,17.30
2018-09-15T18:29:36.278Z,17.20
2018-09-15T18:32:04.225Z,17.20
2018-09-15T18:34:32.074Z,17.10
2018-09-15T18:37:00.183Z,16.90
2018-09-15T18:39:28.150Z,16.80
2018-09-15T18:41:56.944Z,16.70
2018-09-15T18:44:24.903Z,16.50
2018-09-15T18:46:53.059Z,16.40
2018-09-15T18:49:20.946Z,16.30
2018-09-15T18:51:48.764Z,16.20
2018-09-15T18:54:16.592Z,16.20
2018-09-15T18:56:44.472Z,16.10
2018-09-15T18:59:12.260Z,16.10
2018-09-15T19:01:40.007Z,15.90
2018-09-15T19:04:07.804Z,16.00
2018-09-15T19:06:35.649Z,15.80
2018-09-15T19:09:06.293Z,15.70
2018-09-15T19:11:34.218Z,15.60
2018-09-15T19:14:02.123Z,15.40
2018-09-15T19:16:30.060Z,15.30
2018-09-15T19:18:57.963Z,15.20
2018-09-15T19:21:25.872Z,15.00
2018-09-15T19:23:53.764Z,15.00
2018-09-15T19:26:21.508Z,14.90
2018-09-15T19:28:49.304Z,14.80
2018-09-15T19:31:17.116Z,14.70
2018-09-15T19:33:44.959Z,14.60
2018-09-15T19:36:12.871Z,14.60
2018-09-15T19:38:40.740Z,14.50
2018-09-15T19:41:08.723Z,14.60
2018-09-15T19:43:36.599Z,14.70
2018-09-15T19:46:09.210Z,14.60
2018-09-15T19:48:37.071Z,14.50
2018-09-15T19:51:05.123Z,14.40
2018-09-15T19:53:32.979Z,14.30
2018-09-15T19:56:00.820Z,14.20
2018-09-15T19:58:30.299Z,14.30
2018-09-15T20:00:58.752Z,14.30
2018-09-15T20:03:26.568Z,14.10
2018-09-15T20:05:54.596Z,14.00
2018-09-15T20:08:22.647Z,13.90
2018-09-15T20:10:50.797Z,13.90
2018-09-15T20:13:18.567Z,13.90
2018-09-15T20:15:44.977Z,14.00
2018-09-15T20:18:11.403Z,13.90
2018-09-15T20:20:37.849Z,13.80
2018-09-15T20:23:05.795Z,13.80
2018-09-15T20:25:33.700Z,13.70
2018-09-15T20:28:01.658Z,13.60
2018-09-15T20:30:29.916Z,13.50
2018-09-15T20:32:57.753Z,13.40
2018-09-15T20:35:25.496Z,13.30
2018-09-15T20:37:53.319Z,13.30
2018-09-15T20:40:21.238Z,13.30
2018-09-15T20:42:49.046Z,13.20
2018-09-15T20:45:16.775Z,13.20
2018-09-15T20:47:44.636Z,13.10
2018-09-15T20:50:12.418Z,13.20
2018-09-15T20:52:40.313Z,13.30
2018-09-15T20:55:10.582Z,13.20
2018-09-15T20:57:38.432Z,13.10
2018-09-15T21:00:07.953Z,13.00
2018-09-15T21:02:35.984Z,13.00
2018-09-15T21:05:07.314Z,13.00
2018-09-15T21:07:35.152Z,13.00
2018-09-15T21:10:03.194Z,12.90
2018-09-15T21:12:30.991Z,13.00
2018-09-15T21:14:58.780Z,12.90
2018-09-15T21:17:26.575Z,12.70
2018-09-15T21:19:54.380Z,12.70
2018-09-15T21:22:22.127Z,12.60
2018-09-15T21:24:49.945Z,12.50
2018-09-15T21:27:17.790Z,12.50
2018-09-15T21:29:46.358Z,12.50
2018-09-15T21:32:14.358Z,12.50
2018-09-15T21:34:42.167Z,12.50
2018-09-15T21:37:13.596Z,12.40
2018-09-15T21:39:41.482Z,12.50
2018-09-15T21:42:09.353Z,12.50
2018-09-15T21:44:37.220Z,12.50
2018-09-15T21:47:05.268Z,12.50
2018-09-15T21:49:33.120Z,12.40
2018-09-15T21:52:00.882Z,12.30
2018-09-15T21:54:28.690Z,12.30
2018-09-15T21:56:56.508Z,12.40
2018-09-15T21:59:24.360Z,12.30
2018-09-15T22:01:52.152Z,12.30
2018-09-15T22:04:21.064Z,12.10
2018-09-15T22:06:50.307Z,12.10
2018-09-15T22:09:18.221Z,12.00
2018-09-15T22:11:45.946Z,12.00
2018-09-15T22:14:13.703Z,12.00
2018-09-15T22:16:42.039Z,12.20
2018-09-15T22:19:09.864Z,12.10
2018-09-15T22:21:37.636Z,12.10
2018-09-15T22:24:06.109Z,12.10
2018-09-15T22:26:33.988Z,12.20
2018-09-15T22:29:02.055Z,12.10
2018-09-15T22:31:29.889Z,12.10
2018-09-15T22:33:58.431Z,12.00
2018-09-15T22:36:26.199Z,11.90
2018-09-15T22:38:54.048Z,12.00
2018-09-15T22:41:21.910Z,12.00
2018-09-15T22:43:49.964Z,12.00
2018-09-15T22:46:17.834Z,12.00
2018-09-15T22:48:45.660Z,11.90
2018-09-15T22:51:13.654Z,11.80
2018-09-15T22:53:41.663Z,11.80
2018-09-15T22:56:09.513Z,11.80
2018-09-15T22:58:37.428Z,11.80
2018-09-15T23:01:14.076Z,11.80
2018-09-15T23:03:43.867Z,11.70
2018-09-15T23:06:11.719Z,11.60
2018-09-15T23:08:40.315Z,11.50
2018-09-15T23:11:08.546Z,11.50
2018-09-15T23:13:36.646Z,11.40
2018-09-15T23:16:04.615Z,11.30
2018-09-15T23:18:32.445Z,11.40
2018-09-15T23:21:00.289Z,11.20
2018-09-15T23:23:28.128Z,11.20
2018-09-15T23:25:56.070Z,11.20
2018-09-15T23:28:23.849Z,11.20
2018-09-15T23:30:51.634Z,11.10
2018-09-15T23:33:19.517Z,11.00
2018-09-15T23:35:47.311Z,11.10
2018-09-15T23:38:15.141Z,11.00
2018-09-15T23:40:42.987Z,11.00
2018-09-15T23:43:10.748Z,10.90
2018-09-15T23:45:38.568Z,11.00
2018-09-15T23:48:06.387Z,10.80
2018-09-15T23:50:34.227Z,10.70
2018-09-15T23:53:02.090Z,10.70
2018-09-15T23:55:29.919Z,10.70
2018-09-15T23:58:04.547Z,10.60
